Time;durP1;ratioP1;P1;durP2;ratioP2;P2;SDS_P1;SDS_P2;PMS_P1;PMS_P2;Temp;Humidity;BMP_temperature;BMP_pressure;BME280_temperature;BME280_humidity;BME280_pressure;Samples;Min_cycle;Max_cycle;Signal;HPM_P1;HPM_P2
2021/06/12 00:01:49;;;;;;;1.48;1.38;;;;;;;30.39;24.07;98172.19;5058671;28;20033;-90
2021/06/12 00:04:15;;;;;;;2.08;1.67;;;;;;;30.20;24.30;98176.28;5055995;28;20043;-90
2021/06/12 00:06:41;;;;;;;1.65;1.30;;;;;;;29.95;25.27;98172.53;5056616;28;20124;-89
2021/06/12 00:09:08;;;;;;;2.35;1.50;;;;;;;29.84;25.48;98172.22;5053169;28;20040;-89
2021/06/12 00:11:35;;;;;;;5.88;1.42;;;;;;;29.79;25.35;98166.38;5056711;28;20043;-91
2021/06/12 00:14:01;;;;;;;1.50;1.40;;;;;;;29.83;25.27;98173.47;5056400;28;20512;-90
2021/06/12 00:16:27;;;;;;;1.27;1.17;;;;;;;30.10;24.70;98175.50;5055811;28;20192;-89
2021/06/12 00:18:53;;;;;;;1.63;1.52;;;;;;;30.44;24.29;98169.50;5054795;28;20047;-89
2021/06/12 00:21:19;;;;;;;1.33;1.23;;;;;;;30.69;23.56;98171.94;5053681;28;20115;-89
2021/06/12 00:23:45;;;;;;;1.58;1.17;;;;;;;30.90;23.12;98175.84;5052551;28;20037;-89
2021/06/12 00:26:13;;;;;;;1.65;1.30;;;;;;;30.86;22.77;98168.75;5050758;28;20048;-89
2021/06/12 00:28:39;;;;;;;1.58;1.00;;;;;;;30.63;22.83;98164.56;5052720;28;20458;-89
2021/06/12 00:31:05;;;;;;;1.60;1.08;;;;;;;30.75;22.59;98166.44;5052545;28;20024;-90
2021/06/12 00:33:31;;;;;;;1.85;1.33;;;;;;;30.64;22.80;98164.09;5053842;28;20033;-89
2021/06/12 00:35:58;;;;;;;1.67;1.15;;;;;;;30.71;23.14;98160.16;5055039;28;20502;-89
2021/06/12 00:38:24;;;;;;;1.27;0.85;;;;;;;30.78;22.96;98165.47;5053750;28;20492;-89
2021/06/12 00:40:50;;;;;;;1.20;1.05;;;;;;;30.71;22.83;98163.00;5056894;28;20176;-88
2021/06/12 00:43:16;;;;;;;1.33;1.23;;;;;;;30.74;22.87;98168.47;5054439;28;20060;-88
2021/06/12 00:45:46;;;;;;;0.70;0.60;;;;;;;30.79;23.04;98155.69;5059774;28;20024;-89
2021/06/12 00:48:13;;;;;;;1.75;0.95;;;;;;;30.62;23.25;98158.13;5057601;28;20504;-89
2021/06/12 00:50:39;;;;;;;1.25;1.15;;;;;;;30.62;22.97;98160.94;5052376;28;20040;-88
2021/06/12 00:53:06;;;;;;;4.60;1.27;;;;;;;30.43;23.23;98162.28;5060459;28;20025;-88
2021/06/12 00:55:32;;;;;;;2.28;1.48;;;;;;;30.22;23.10;98154.72;5059516;28;20103;-88
2021/06/12 00:57:58;;;;;;;3.38;1.50;;;;;;;30.22;23.58;98153.94;5057147;28;20419;-89
2021/06/12 01:00:25;;;;;;;1.67;1.20;;;;;;;29.92;23.46;98158.53;5064734;28;20388;-89
2021/06/12 01:02:52;;;;;;;1.65;0.77;;;;;;;29.97;22.92;98155.06;5059688;28;20037;-89
2021/06/12 01:05:21;;;;;;;1.20;1.10;;;;;;;30.07;22.89;98157.41;5055565;28;20513;-90
2021/06/12 01:07:47;;;;;;;2.55;1.08;;;;;;;30.24;23.04;98165.59;5060053;28;20396;-88
2021/06/12 01:10:15;;;;;;;0.82;0.82;;;;;;;30.25;22.98;98158.63;5057557;28;20079;-89
2021/06/12 01:13:13;;;;;;;1.10;1.00;;;;;;;30.01;23.32;98159.28;5060304;28;20079;-89
2021/06/12 01:15:52;;;;;;;1.23;1.13;;;;;;;29.97;23.10;98161.50;5064414;28;20031;-88
2021/06/12 01:18:22;;;;;;;1.02;0.93;;;;;;;29.85;23.54;98164.50;5053744;28;20448;-89
2021/06/12 01:20:59;;;;;;;1.40;1.30;;;;;;;29.54;23.75;98161.00;5056873;28;20134;-89
2021/06/12 01:23:28;;;;;;;1.08;0.90;;;;;;;29.65;23.70;98164.94;5060328;28;20348;-89
2021/06/12 01:26:24;;;;;;;1.50;0.90;;;;;;;29.76;23.36;98159.63;5060457;28;20488;-89
2021/06/12 01:29:21;;;;;;;4.75;1.30;;;;;;;29.44;23.45;98160.19;5062241;28;20045;-89
2021/06/12 01:31:49;;;;;;;1.48;1.20;;;;;;;29.30;24.35;98152.28;5056653;28;20500;-88
2021/06/12 01:34:15;;;;;;;2.05;1.42;;;;;;;29.09;24.51;98156.78;5059786;28;20635;-88
2021/06/12 01:36:43;;;;;;;1.40;1.30;;;;;;;29.13;24.87;98156.59;5060105;28;20249;-88
2021/06/12 01:39:09;;;;;;;2.35;1.10;;;;;;;29.25;24.01;98155.72;5055487;28;20029;-88
2021/06/12 01:41:37;;;;;;;1.70;1.38;;;;;;;29.49;23.79;98150.28;5055795;28;20028;-88
2021/06/12 01:44:04;;;;;;;2.38;1.27;;;;;;;29.50;23.85;98149.81;5054892;28;20061;-88
2021/06/12 01:46:30;;;;;;;1.30;1.20;;;;;;;29.40;23.62;98145.41;5058985;28;20044;-88
2021/06/12 01:48:58;;;;;;;1.60;1.42;;;;;;;29.52;23.51;98149.34;5057275;28;20052;-88
2021/06/12 01:51:25;;;;;;;2.15;1.55;;;;;;;29.74;23.65;98141.50;5056303;28;20427;-89
2021/06/12 01:53:55;;;;;;;1.42;0.98;;;;;;;29.83;22.86;98153.66;5058463;28;20113;-88
2021/06/12 01:56:25;;;;;;;0.98;0.88;;;;;;;30.03;22.57;98139.00;5058300;28;20170;-88
2021/06/12 01:58:52;;;;;;;1.40;1.20;;;;;;;29.69;23.48;98137.25;5063240;28;20046;-88
2021/06/12 02:01:20;;;;;;;1.27;1.15;;;;;;;29.53;23.55;98142.41;5058683;28;20460;-88
2021/06/12 02:03:48;;;;;;;1.10;0.93;;;;;;;29.42;23.48;98142.91;5058269;28;20032;-88
2021/06/12 02:06:16;;;;;;;1.35;1.25;;;;;;;29.59;23.21;98140.56;5056191;28;20489;-89
2021/06/12 02:08:44;;;;;;;1.40;1.05;;;;;;;29.73;23.44;98139.94;5052802;28;20037;-89
2021/06/12 02:11:13;;;;;;;1.35;1.00;;;;;;;29.89;23.08;98145.31;5054818;28;20071;-87
2021/06/12 02:13:41;;;;;;;1.70;1.10;;;;;;;29.65;23.32;98142.28;5058069;28;20028;-88
2021/06/12 02:16:08;;;;;;;4.28;1.58;;;;;;;29.41;24.03;98144.94;5059601;28;20041;-88
2021/06/12 02:18:36;;;;;;;1.48;1.30;;;;;;;29.31;24.46;98149.00;5056100;28;20029;-88
2021/06/12 02:21:03;;;;;;;1.77;1.15;;;;;;;29.42;24.08;98140.84;5055295;28;20044;-88
2021/06/12 02:23:30;;;;;;;1.20;1.10;;;;;;;29.66;23.51;98137.44;5057174;28;20458;-88
2021/06/12 02:25:57;;;;;;;1.17;0.93;;;;;;;29.84;23.07;98138.25;5057185;28;20036;-88
2021/06/12 02:28:33;;;;;;;2.33;1.25;;;;;;;29.95;22.65;98138.53;5057768;28;20086;-88
2021/06/12 02:31:14;;;;;;;1.42;1.33;;;;;;;29.92;22.40;98133.81;5054668;28;20079;-88
2021/06/12 02:33:41;;;;;;;2.35;1.55;;;;;;;29.99;22.65;98136.34;5057283;28;20032;-88
2021/06/12 02:36:07;;;;;;;1.55;1.02;;;;;;;30.02;22.85;98140.25;5057291;28;20040;-88
2021/06/12 02:38:33;;;;;;;1.77;1.27;;;;;;;30.12;22.35;98138.22;5057119;28;20488;-88
2021/06/12 02:40:59;;;;;;;1.38;1.27;;;;;;;30.02;22.42;98132.56;5053730;28;20381;-88
2021/06/12 02:43:26;;;;;;;1.48;1.20;;;;;;;29.69;23.07;98137.25;5055161;28;20033;-88
2021/06/12 02:45:53;;;;;;;1.80;1.50;;;;;;;29.46;23.79;98131.41;5054129;28;20500;-88
2021/06/12 02:48:21;;;;;;;1.58;1.38;;;;;;;29.38;23.90;98134.53;5053538;28;20167;-88
2021/06/12 02:50:48;;;;;;;1.40;1.20;;;;;;;29.69;23.77;98134.41;5056855;28;20032;-88
2021/06/12 02:53:16;;;;;;;1.23;1.13;;;;;;;29.81;23.56;98130.69;5055384;28;20108;-88
2021/06/12 02:55:49;;;;;;;1.15;1.00;;;;;;;29.94;22.74;98131.28;5065204;28;20067;-88
2021/06/12 02:58:22;;;;;;;1.77;1.40;;;;;;;30.06;22.45;98136.00;5057654;28;20115;-88
2021/06/12 03:00:49;;;;;;;1.33;1.20;;;;;;;29.93;22.50;98131.78;5058160;28;20034;-88
2021/06/12 03:03:16;;;;;;;1.58;1.30;;;;;;;29.91;22.39;98128.63;5056387;28;20043;-88
2021/06/12 03:05:48;;;;;;;1.85;1.38;;;;;;;29.99;22.65;98132.75;5052265;28;20025;-87
2021/06/12 03:08:16;;;;;;;1.48;1.00;;;;;;;29.68;22.84;98135.69;5057910;28;20052;-87
2021/06/12 03:10:44;;;;;;;2.58;1.17;;;;;;;29.89;22.81;98134.00;5059049;28;20051;-87
2021/06/12 03:13:17;;;;;;;1.30;1.20;;;;;;;29.92;22.95;98133.06;5054107;28;20392;-87
2021/06/12 03:15:45;;;;;;;1.33;1.00;;;;;;;29.72;23.40;98136.31;5057360;28;20029;-87
2021/06/12 03:18:12;;;;;;;0.60;0.60;;;;;;;29.73;23.20;98137.91;5056823;28;20532;-87
2021/06/12 03:20:40;;;;;;;1.48;1.38;;;;;;;29.98;23.48;98136.81;5055453;28;20033;-87
2021/06/12 03:23:08;;;;;;;1.67;1.58;;;;;;;29.90;23.07;98138.38;5055210;28;20115;-88
2021/06/12 03:25:34;;;;;;;1.25;1.15;;;;;;;29.83;23.59;98147.19;5056142;28;20131;-87
2021/06/12 03:28:01;;;;;;;1.50;1.25;;;;;;;29.88;23.77;98138.06;5057224;28;20045;-87
2021/06/12 03:30:28;;;;;;;1.27;1.00;;;;;;;30.26;23.68;98138.34;5087005;28;20025;-87
2021/06/12 03:32:56;;;;;;;1.77;1.10;;;;;;;30.74;23.38;98145.78;5054407;28;20111;-88
2021/06/12 03:35:24;;;;;;;1.70;1.33;;;;;;;31.17;23.01;98138.06;5058027;28;20392;-88
2021/06/12 03:37:50;;;;;;;1.67;1.58;;;;;;;31.67;23.08;98133.53;5055078;28;20033;-87
2021/06/12 03:40:17;;;;;;;1.70;1.30;;;;;;;31.87;23.08;98142.97;5054969;28;20051;-88
2021/06/12 03:42:44;;;;;;;1.67;1.30;;;;;;;31.96;23.41;98151.44;5054962;28;20520;-88
2021/06/12 03:45:13;;;;;;;1.90;1.70;;;;;;;32.21;23.36;98147.25;5057757;28;20392;-88
2021/06/12 03:47:40;;;;;;;1.98;1.88;;;;;;;32.40;23.36;98151.50;5088109;28;20506;-88
2021/06/12 03:50:10;;;;;;;1.88;1.55;;;;;;;32.57;22.85;98151.81;5052407;28;20416;-88
2021/06/12 03:52:36;;;;;;;1.67;1.50;;;;;;;32.69;23.02;98151.53;5053365;28;20029;-88
2021/06/12 03:55:04;;;;;;;2.35;2.03;;;;;;;32.93;23.14;98150.63;5067458;28;20107;-88
2021/06/12 03:57:30;;;;;;;2.47;2.15;;;;;;;33.16;23.24;98159.03;5057329;28;20033;-88
2021/06/12 03:59:57;;;;;;;1.88;1.77;;;;;;;33.38;23.33;98153.66;5058139;28;20025;-89
2021/06/12 04:02:24;;;;;;;2.72;1.85;;;;;;;33.58;23.64;98157.81;5054291;28;20029;-89
2021/06/12 04:04:50;;;;;;;2.33;2.17;;;;;;;33.66;23.04;98156.09;5059157;28;20074;-89
2021/06/12 04:07:17;;;;;;;1.90;1.70;;;;;;;33.67;23.40;98157.69;5055645;28;20025;-89
2021/06/12 04:09:44;;;;;;;1.95;1.65;;;;;;;33.76;22.87;98164.03;5056038;28;20124;-89
2021/06/12 04:12:11;;;;;;;2.30;1.52;;;;;;;33.87;22.43;98163.38;5057447;28;20112;-89
2021/06/12 04:14:37;;;;;;;2.08;1.55;;;;;;;34.00;22.55;98163.81;5058153;28;20102;-88
2021/06/12 04:17:04;;;;;;;1.20;1.10;;;;;;;34.21;23.14;98161.72;5053615;28;20104;-88
2021/06/12 04:19:30;;;;;;;1.88;1.35;;;;;;;34.58;22.43;98168.34;5058335;28;20053;-89
2021/06/12 04:21:56;;;;;;;1.27;1.13;;;;;;;34.94;21.80;98173.31;5052254;28;20056;-90
2021/06/12 04:24:22;;;;;;;1.38;1.27;;;;;;;35.06;21.56;98168.50;5055134;28;20454;-90
2021/06/12 04:26:48;;;;;;;1.38;1.17;;;;;;;35.01;21.88;98169.25;5056543;28;20060;-90
2021/06/12 04:29:15;;;;;;;2.17;1.45;;;;;;;34.75;22.26;98164.34;5058924;28;20033;-89
2021/06/12 04:31:41;;;;;;;1.63;1.52;;;;;;;34.28;23.24;98162.06;5056743;28;20042;-90
2021/06/12 04:34:07;;;;;;;2.25;1.67;;;;;;;33.99;22.88;98162.22;5059424;28;20028;-89
2021/06/12 04:36:33;;;;;;;2.08;1.92;;;;;;;33.84;24.06;98156.59;5055039;28;20037;-89
2021/06/12 04:39:03;;;;;;;1.95;1.48;;;;;;;33.94;23.66;98166.56;5068581;28;20033;-89
2021/06/12 04:41:29;;;;;;;2.00;1.90;;;;;;;34.02;23.75;98161.22;5058271;28;20834;-89
2021/06/12 04:43:55;;;;;;;2.38;1.85;;;;;;;34.22;23.56;98161.22;5069376;28;20029;-89
2021/06/12 04:46:21;;;;;;;2.15;1.70;;;;;;;34.43;23.06;98159.09;5054572;28;20041;-91
2021/06/12 04:48:47;;;;;;;2.30;1.52;;;;;;;34.56;23.64;98166.03;5072914;28;20397;-90
2021/06/12 04:51:13;;;;;;;1.98;1.77;;;;;;;34.77;23.34;98161.00;5069137;28;20396;-91
2021/06/12 04:53:39;;;;;;;1.50;1.40;;;;;;;34.97;22.64;98157.25;5057484;28;20025;-90
2021/06/12 04:56:06;;;;;;;1.70;1.40;;;;;;;35.15;23.10;98156.94;5061167;28;20033;-90
2021/06/12 04:58:34;;;;;;;1.55;1.40;;;;;;;35.41;23.09;98155.53;5056639;28;20056;-90
2021/06/12 05:01:00;;;;;;;1.27;1.17;;;;;;;35.49;23.13;98164.41;5062681;28;20107;-90
2021/06/12 05:03:26;;;;;;;1.52;1.42;;;;;;;35.48;23.08;98162.81;5055547;28;20033;-90
2021/06/12 05:05:53;;;;;;;1.35;1.13;;;;;;;35.65;23.20;98155.16;5061511;28;20033;-90
2021/06/12 05:08:19;;;;;;;1.55;1.45;;;;;;;35.85;22.88;98151.38;5054989;28;20033;-90
2021/06/12 05:10:45;;;;;;;1.25;1.15;;;;;;;36.02;22.99;98157.94;5056765;28;20108;-91
2021/06/12 05:13:11;;;;;;;1.65;1.42;;;;;;;36.31;23.09;98151.00;5073826;28;20469;-91
2021/06/12 05:15:37;;;;;;;1.58;1.05;;;;;;;36.77;22.81;98145.63;5062565;28;20033;-91
2021/06/12 05:18:05;;;;;;;0.88;0.88;;;;;;;37.31;22.15;98144.03;5054737;28;20051;-91
2021/06/12 05:20:35;;;;;;;0.88;0.82;;;;;;;37.59;21.49;98146.84;5062771;28;20119;-90
2021/06/12 05:23:02;;;;;;;0.80;0.80;;;;;;;37.81;21.17;98140.25;5064674;28;20135;-88
2021/06/12 05:25:29;;;;;;;1.00;0.77;;;;;;;37.86;20.86;98140.25;5067559;28;20507;-89
2021/06/12 05:27:56;;;;;;;0.65;0.65;;;;;;;37.92;21.33;98141.03;5066797;28;20135;-89
2021/06/12 05:30:22;;;;;;;0.80;0.80;;;;;;;38.07;20.23;98143.53;5056490;28;20033;-92
2021/06/12 05:32:49;;;;;;;0.60;0.60;;;;;;;38.07;20.77;98145.66;5053828;28;20625;-90
2021/06/12 05:35:15;;;;;;;0.70;0.70;;;;;;;38.18;20.79;98140.63;5055517;28;20120;-90
2021/06/12 05:37:41;;;;;;;2.72;0.85;;;;;;;38.31;20.17;98129.34;5058683;28;20040;-90
2021/06/12 05:40:09;;;;;;;0.60;0.60;;;;;;;38.41;20.30;98139.22;5066162;28;20516;-91
2021/06/12 05:42:36;;;;;;;1.10;0.88;;;;;;;38.30;20.55;98141.38;5066929;28;20463;-90
2021/06/12 05:45:04;;;;;;;0.70;0.70;;;;;;;38.45;20.83;98141.78;5065070;28;20044;-88
2021/06/12 05:47:30;;;;;;;0.95;0.85;;;;;;;38.52;19.97;98133.38;5062918;28;20071;-86
2021/06/12 05:49:56;;;;;;;0.60;0.60;;;;;;;38.70;20.66;98134.78;5058130;28;20033;-88
2021/06/12 05:52:22;;;;;;;0.70;0.70;;;;;;;38.81;19.76;98139.72;5062631;28;20028;-88
2021/06/12 05:54:48;;;;;;;0.75;0.75;;;;;;;38.72;19.15;98128.56;5058599;28;20120;-87
2021/06/12 05:57:14;;;;;;;0.70;0.70;;;;;;;38.64;20.41;98129.13;5054453;28;20029;-88
2021/06/12 05:59:40;;;;;;;1.25;0.85;;;;;;;38.67;19.48;98130.16;5059422;28;20039;-87
2021/06/12 06:02:07;;;;;;;0.63;0.63;;;;;;;38.80;19.69;98132.41;5063686;28;20032;-90
2021/06/12 06:04:33;;;;;;;1.02;0.68;;;;;;;38.93;20.18;98130.44;5065287;28;20024;-89
2021/06/12 06:07:00;;;;;;;0.75;0.75;;;;;;;38.26;19.75;98133.00;5068620;28;20033;-87
2021/06/12 06:09:26;;;;;;;0.60;0.60;;;;;;;38.28;19.50;98129.63;5077348;28;20036;-87
2021/06/12 06:11:52;;;;;;;1.48;0.68;;;;;;;38.47;20.09;98131.31;5062258;28;20044;-89
2021/06/12 06:14:18;;;;;;;1.00;0.75;;;;;;;38.68;20.01;98125.94;5058220;28;20154;-89
2021/06/12 06:16:44;;;;;;;0.88;0.70;;;;;;;38.56;19.79;98128.13;5061015;28;20029;-89
2021/06/12 06:19:10;;;;;;;0.98;0.93;;;;;;;38.67;19.34;98130.91;5060595;28;20028;-90
2021/06/12 06:21:36;;;;;;;1.05;0.70;;;;;;;38.79;20.55;98125.13;5061537;28;20028;-92
2021/06/12 06:24:04;;;;;;;0.63;0.63;;;;;;;38.64;19.28;98126.25;5056449;28;20029;-91
2021/06/12 06:26:30;;;;;;;0.75;0.75;;;;;;;38.22;20.42;98118.16;5060102;28;20039;-91
2021/06/12 06:28:56;;;;;;;1.60;0.98;;;;;;;38.32;20.19;98115.78;5056821;28;20075;-92
2021/06/12 06:31:22;;;;;;;0.95;0.65;;;;;;;38.42;20.61;98123.53;5057494;28;20048;-91
2021/06/12 06:33:51;;;;;;;0.82;0.70;;;;;;;38.58;19.85;98107.53;5056387;28;20040;-91
2021/06/12 06:36:17;;;;;;;0.70;0.70;;;;;;;38.86;19.13;98119.53;5055415;28;20040;-91
2021/06/12 06:38:43;;;;;;;0.80;0.80;;;;;;;39.07;19.53;98117.03;5052151;28;20044;-91
2021/06/12 06:41:10;;;;;;;0.80;0.77;;;;;;;38.95;19.79;98121.31;5062661;28;20065;-91
2021/06/12 06:43:36;;;;;;;1.05;0.95;;;;;;;38.66;19.52;98120.75;5057093;28;20125;-91
2021/06/12 06:46:02;;;;;;;2.05;0.95;;;;;;;38.78;19.52;98130.06;5056352;28;20095;-92
2021/06/12 06:48:28;;;;;;;1.55;1.02;;;;;;;38.65;19.35;98119.19;5052650;28;20037;-90
2021/06/12 06:50:57;;;;;;;2.35;1.35;;;;;;;37.79;19.48;98131.38;5054191;28;20024;-89
2021/06/12 06:53:23;;;;;;;1.27;1.17;;;;;;;36.87;20.06;98126.91;5055089;28;20032;-89
2021/06/12 06:55:49;;;;;;;0.98;0.98;;;;;;;36.73;21.10;98122.22;5062857;28;20051;-90
2021/06/12 06:58:15;;;;;;;1.40;1.17;;;;;;;36.95;21.20;98122.22;5056468;28;20103;-90
2021/06/12 07:00:41;;;;;;;1.08;0.77;;;;;;;36.78;20.41;98110.00;5055777;28;20048;-90
2021/06/12 07:03:07;;;;;;;0.82;0.80;;;;;;;36.69;21.38;98116.72;5055475;28;20045;-90
2021/06/12 07:05:33;;;;;;;2.47;0.90;;;;;;;37.55;20.29;98116.91;5053000;28;20037;-90
2021/06/12 07:08:00;;;;;;;0.70;0.70;;;;;;;38.04;20.22;98113.06;5053588;28;20052;-90
2021/06/12 07:10:26;;;;;;;0.60;0.60;;;;;;;38.41;19.66;98107.66;5055829;28;20060;-89
2021/06/12 07:13:01;;;;;;;0.95;0.80;;;;;;;38.36;19.01;98108.47;5054399;28;20374;-88
2021/06/12 07:15:27;;;;;;;1.52;0.80;;;;;;;38.38;19.43;98102.97;5072030;28;20377;-86
2021/06/12 07:17:54;;;;;;;0.70;0.70;;;;;;;38.60;19.38;98105.66;5059128;28;20036;-88
2021/06/12 07:20:20;;;;;;;0.80;0.80;;;;;;;38.72;18.53;98104.28;5049605;28;20040;-88
2021/06/12 07:22:46;;;;;;;1.15;0.80;;;;;;;38.82;18.36;98101.06;5053426;28;20167;-88
2021/06/12 07:25:13;;;;;;;1.15;0.73;;;;;;;38.97;19.15;98107.97;5056687;28;20119;-88
2021/06/12 07:27:39;;;;;;;0.50;0.50;;;;;;;39.11;18.76;98106.81;5054613;28;20049;-89
2021/06/12 07:30:06;;;;;;;0.60;0.60;;;;;;;39.13;17.65;98107.03;5049709;28;20089;-88
2021/06/12 07:32:32;;;;;;;0.75;0.55;;;;;;;38.82;18.81;98107.59;5056091;28;20501;-89
2021/06/12 07:34:58;;;;;;;0.60;0.60;;;;;;;38.91;18.40;98098.63;5058708;28;20066;-88
2021/06/12 07:37:24;;;;;;;1.42;0.80;;;;;;;39.02;17.89;98100.63;5054929;28;20045;-88
2021/06/12 07:39:51;;;;;;;0.60;0.40;;;;;;;39.10;18.70;98105.22;5058354;28;20150;-89
2021/06/12 07:42:17;;;;;;;0.50;0.50;;;;;;;39.33;18.34;98103.69;5057868;28;20033;-89
2021/06/12 07:44:43;;;;;;;2.42;0.50;;;;;;;39.15;18.43;98100.78;5060191;28;20063;-87
2021/06/12 07:47:10;;;;;;;0.90;0.73;;;;;;;38.87;18.64;98092.41;5053350;28;20182;-87
2021/06/12 07:49:36;;;;;;;1.00;0.63;;;;;;;38.79;17.98;98090.66;5058997;28;20040;-87
2021/06/12 07:52:03;;;;;;;2.85;0.40;;;;;;;38.95;18.32;98090.50;5054293;28;20039;-89
2021/06/12 07:54:29;;;;;;;0.70;0.70;;;;;;;38.81;17.36;98090.91;5060120;28;20154;-87
2021/06/12 07:56:55;;;;;;;0.50;0.50;;;;;;;38.85;18.31;98091.38;5058901;28;20037;-88
2021/06/12 07:59:21;;;;;;;0.68;0.40;;;;;;;39.09;17.84;98085.66;5061400;28;20063;-87
2021/06/12 08:01:47;;;;;;;0.50;0.50;;;;;;;39.15;17.60;98084.31;5062055;28;20389;-88
2021/06/12 08:04:13;;;;;;;0.65;0.57;;;;;;;39.17;17.66;98084.56;5066885;28;20503;-89
2021/06/12 08:06:39;;;;;;;0.40;0.40;;;;;;;39.48;17.79;98091.78;5062302;28;20031;-87
2021/06/12 08:09:05;;;;;;;0.50;0.47;;;;;;;39.42;18.33;98084.56;5065039;28;20054;-89
2021/06/12 08:11:32;;;;;;;0.50;0.50;;;;;;;38.55;17.75;98083.53;5060485;28;22668;-91
2021/06/12 08:13:58;;;;;;;1.92;0.60;;;;;;;38.81;18.44;98093.78;5059499;28;20037;-89
2021/06/12 08:16:24;;;;;;;0.47;0.40;;;;;;;38.50;18.59;98092.19;5062976;28;20031;-89
2021/06/12 08:18:50;;;;;;;1.88;0.50;;;;;;;38.66;18.29;98099.88;5069949;28;20112;-89
2021/06/12 08:21:16;;;;;;;0.73;0.40;;;;;;;38.87;17.57;98100.22;5068551;28;20032;-88
2021/06/12 08:23:42;;;;;;;0.40;0.40;;;;;;;39.00;17.70;98106.13;5064165;28;20039;-88
2021/06/12 08:26:08;;;;;;;0.70;0.60;;;;;;;38.79;18.00;98102.16;5062431;28;20048;-87
2021/06/12 08:28:34;;;;;;;0.30;0.30;;;;;;;38.72;18.55;98105.59;5055617;28;20559;-86
2021/06/12 08:31:03;;;;;;;0.40;0.40;;;;;;;37.62;17.78;98090.56;5064176;28;20028;-87
2021/06/12 08:33:29;;;;;;;0.38;0.38;;;;;;;37.19;18.25;98093.81;5058727;28;20040;-86
2021/06/12 08:35:55;;;;;;;1.67;0.50;;;;;;;36.89;18.23;98092.00;5059317;28;20126;-87
2021/06/12 08:38:21;;;;;;;0.50;0.50;;;;;;;36.82;18.76;98086.81;5063525;28;20024;-90
2021/06/12 08:40:48;;;;;;;0.75;0.40;;;;;;;37.24;19.63;98086.50;5058998;28;20075;-88
2021/06/12 08:43:40;;;;;;;0.63;0.35;;;;;;;37.82;18.58;98078.75;5061738;28;20076;-90
2021/06/12 08:46:07;;;;;;;0.32;0.32;;;;;;;37.93;18.04;98075.84;5067689;28;20098;-86
2021/06/12 08:48:35;;;;;;;2.17;0.50;;;;;;;37.83;19.03;98083.97;5057202;28;20033;-87
2021/06/12 08:51:01;;;;;;;1.63;0.63;;;;;;;36.72;19.75;98081.34;5059816;28;20037;-86
2021/06/12 08:53:28;;;;;;;0.65;0.65;;;;;;;35.90;21.06;98076.28;5069697;28;20112;-87
2021/06/12 08:55:54;;;;;;;0.75;0.75;;;;;;;35.32;21.38;98083.56;5058957;28;20025;-87
2021/06/12 08:58:20;;;;;;;1.38;1.13;;;;;;;35.47;20.91;98081.31;5060871;28;20041;-87
2021/06/12 09:00:47;;;;;;;1.80;0.60;;;;;;;35.91;20.96;98072.91;5065534;28;20447;-88
2021/06/12 09:03:26;;;;;;;0.75;0.75;;;;;;;37.07;19.21;98068.56;5064421;28;20048;-93
2021/06/12 09:05:57;;;;;;;0.65;0.60;;;;;;;37.47;18.67;98070.03;5072119;28;20024;-87
2021/06/12 09:08:28;;;;;;;0.60;0.60;;;;;;;37.03;18.97;98066.00;5067649;28;20067;-86
2021/06/12 09:11:05;;;;;;;1.13;0.70;;;;;;;36.04;20.16;98073.22;5055797;28;20032;-85
2021/06/12 09:13:39;;;;;;;0.88;0.88;;;;;;;35.68;20.65;98070.50;5057591;28;20086;-84
2021/06/12 09:16:08;;;;;;;0.70;0.57;;;;;;;35.77;20.85;98061.69;5063858;28;20035;-83
2021/06/12 09:18:40;;;;;;;0.95;0.68;;;;;;;35.53;21.40;98067.06;5056762;28;20044;-83
2021/06/12 09:21:07;;;;;;;1.13;0.75;;;;;;;34.55;20.88;98063.84;5068028;28;20069;-85
2021/06/12 09:23:41;;;;;;;0.65;0.50;;;;;;;34.70;20.99;98068.09;5060200;28;20048;-84
2021/06/12 09:26:08;;;;;;;2.78;0.90;;;;;;;34.56;21.35;98059.69;5069951;28;20395;-85
2021/06/12 09:28:52;;;;;;;1.10;0.70;;;;;;;34.70;21.52;98058.78;5076391;28;20377;-84
2021/06/12 09:31:23;;;;;;;1.35;1.05;;;;;;;35.40;20.98;98058.94;5059886;28;20400;-83
2021/06/12 09:33:53;;;;;;;1.50;0.80;;;;;;;35.81;19.11;98057.28;5070280;28;20037;-83
2021/06/12 09:36:19;;;;;;;2.88;0.68;;;;;;;35.76;19.73;98057.28;5059329;28;20123;-82
2021/06/12 09:38:45;;;;;;;1.23;0.95;;;;;;;35.37;21.38;98049.31;5062644;28;20409;-83
2021/06/12 09:41:28;;;;;;;0.77;0.77;;;;;;;35.52;20.88;98054.09;5060453;28;20047;-83
2021/06/12 09:43:58;;;;;;;0.47;0.47;;;;;;;36.48;19.44;98048.88;5054513;28;20028;-83
2021/06/12 09:46:34;;;;;;;1.02;0.50;;;;;;;36.76;18.52;98049.59;5067846;28;22378;-84
2021/06/12 09:49:01;;;;;;;0.98;0.90;;;;;;;37.92;18.53;98040.69;5062369;28;20385;-83
2021/06/12 09:51:28;;;;;;;0.45;0.45;;;;;;;38.20;17.00;98039.69;5059112;28;20040;-83
2021/06/12 09:53:56;;;;;;;3.20;0.60;;;;;;;37.93;19.56;98042.22;5066368;28;20071;-83
2021/06/12 09:56:25;;;;;;;1.45;0.50;;;;;;;37.51;19.54;98041.91;5069917;28;20037;-83
2021/06/12 09:58:54;;;;;;;1.58;1.08;;;;;;;37.78;18.75;98046.72;5067507;28;20438;-83
2021/06/12 10:01:24;;;;;;;0.47;0.47;;;;;;;38.35;17.73;98040.13;5064282;28;20032;-83
2021/06/12 10:04:08;;;;;;;0.50;0.50;;;;;;;38.21;16.65;98041.25;5068256;28;20029;-83
2021/06/12 10:06:35;;;;;;;0.60;0.50;;;;;;;38.01;17.46;98040.34;5061338;28;20091;-84
2021/06/12 10:09:03;;;;;;;2.30;0.50;;;;;;;37.79;16.96;98036.78;5058248;28;20039;-83
2021/06/12 10:11:31;;;;;;;0.52;0.38;;;;;;;38.09;17.33;98022.56;5062430;28;20447;-82
2021/06/12 10:13:58;;;;;;;0.40;0.40;;;;;;;39.01;16.97;98018.63;5061590;28;20540;-81
2021/06/12 10:16:25;;;;;;;0.60;0.60;;;;;;;39.17;17.70;98021.34;5067016;28;20033;-82
2021/06/12 10:18:53;;;;;;;0.73;0.68;;;;;;;38.01;18.87;98022.38;5060753;28;20029;-82
2021/06/12 10:21:19;;;;;;;0.45;0.45;;;;;;;37.97;18.54;98010.41;5068675;28;20039;-82
2021/06/12 10:23:47;;;;;;;0.50;0.50;;;;;;;38.14;18.79;98013.91;5061787;28;20511;-84
2021/06/12 10:26:15;;;;;;;0.70;0.40;;;;;;;38.63;18.74;98012.72;5061809;28;20033;-84
2021/06/12 10:28:42;;;;;;;0.32;0.32;;;;;;;39.41;17.12;97994.69;5064016;28;20049;-84
2021/06/12 10:31:19;;;;;;;0.57;0.40;;;;;;;39.92;17.04;97993.47;5065710;28;20037;-84
2021/06/12 10:33:47;;;;;;;0.77;0.40;;;;;;;39.42;16.64;97993.34;5057876;28;20051;-82
2021/06/12 10:36:21;;;;;;;0.50;0.50;;;;;;;38.59;17.71;97995.03;5055073;28;20029;-83
2021/06/12 10:38:48;;;;;;;1.15;0.45;;;;;;;38.94;17.23;97999.91;5063322;28;20041;-82
2021/06/12 10:41:26;;;;;;;0.20;0.20;;;;;;;39.03;17.98;97999.56;5078931;28;20463;-80
2021/06/12 10:43:59;;;;;;;0.25;0.25;;;;;;;39.46;16.44;97996.72;5052172;28;20029;-80
2021/06/12 10:46:27;;;;;;;0.30;0.30;;;;;;;39.59;16.80;97991.06;5067914;28;20025;-80
2021/06/12 10:49:04;;;;;;;0.60;0.40;;;;;;;39.96;16.13;97979.53;5062209;28;20033;-82
2021/06/12 10:51:34;;;;;;;0.47;0.47;;;;;;;40.13;15.03;97972.75;5058620;28;20373;-82
2021/06/12 10:54:22;;;;;;;0.90;0.20;;;;;;;40.75;14.67;97974.06;5056942;28;20055;-81
2021/06/12 10:57:11;;;;;;;0.20;0.20;;;;;;;41.08;15.56;97967.63;5065718;28;20054;-81
2021/06/12 10:59:47;;;;;;;0.40;0.40;;;;;;;41.44;15.08;97967.19;5060896;28;20041;-81
2021/06/12 11:02:26;;;;;;;0.40;0.40;;;;;;;40.22;16.53;97969.47;5053211;28;20021;-81
2021/06/12 11:05:02;;;;;;;0.50;0.40;;;;;;;39.42;15.39;97958.09;5087248;27;20500;-81
2021/06/12 11:07:34;;;;;;;0.35;0.35;;;;;;;40.31;15.88;97952.56;5059982;28;20045;-82
2021/06/12 11:10:22;;;;;;;0.40;0.40;;;;;;;40.49;15.31;97948.88;5057782;28;20125;-82
2021/06/12 11:12:50;;;;;;;0.60;0.20;;;;;;;40.79;16.12;97951.44;5062268;28;20066;-82
2021/06/12 11:15:22;;;;;;;0.25;0.25;;;;;;;40.97;15.01;97953.47;5068329;28;20127;-82
2021/06/12 11:18:23;;;;;;;0.30;0.30;;;;;;;39.37;16.45;97951.13;5061991;28;20045;-82
2021/06/12 11:21:07;;;;;;;3.72;0.40;;;;;;;38.59;17.51;97954.06;5057305;28;20033;-82
2021/06/12 11:23:48;;;;;;;0.57;0.50;;;;;;;38.16;17.71;97951.06;5067545;28;20489;-82
2021/06/12 11:26:14;;;;;;;0.30;0.30;;;;;;;38.64;17.26;97947.50;5063372;28;20082;-82
2021/06/12 11:28:46;;;;;;;0.30;0.30;;;;;;;39.45;17.25;97942.63;5061095;28;20036;-81
2021/06/12 11:31:30;;;;;;;0.43;0.43;;;;;;;40.24;16.89;97938.06;5057190;28;20028;-83
2021/06/12 11:34:23;;;;;;;0.50;0.50;;;;;;;40.77;15.81;97927.41;5059523;28;20444;-82
2021/06/12 11:37:11;;;;;;;0.30;0.30;;;;;;;40.63;15.27;97926.63;5062998;28;20142;-82
2021/06/12 11:40:07;;;;;;;1.02;0.40;;;;;;;39.46;16.80;97930.59;5063559;28;20037;-82
2021/06/12 11:42:49;;;;;;;0.35;0.35;;;;;;;40.26;15.39;97924.66;5042660;28;20037;-82